Time,TemperatureF,DewpointF,PressureIn,WindDirection,WindDirectionDegrees,WindSpeedMPH,WindSpeedGustMPH,Humidity,HourlyPrecipIn,Conditions,Clouds,dailyrainin,SoftwareType,DateUTC
2013-09-24 13:44:00,89.6,60.0,29.89,North,10,4.0,9.0,37,0.00,,,0.01,weatherlink.com 1.10,2013-09-24 18:44:00,
2013-09-24 13:59:00,90.6,59.0,29.89,NNW,347,2.0,7.0,34,0.00,,,0.01,weatherlink.com 1.10,2013-09-24 18:59:00,
2013-09-24 14:14:00,90.9,59.0,29.88,NNW,336,4.0,8.0,34,0.00,,,0.01,weatherlink.com 1.10,2013-09-24 19:14:00,
2013-09-24 14:29:00,91.0,58.0,29.88,NNE,13,6.0,8.0,33,0.00,,,0.01,weatherlink.com 1.10,2013-09-24 19:29:00,
2013-09-24 14:44:00,91.8,55.0,29.87,NE,47,10.0,11.0,29,0.00,,,0.01,weatherlink.com 1.10,2013-09-24 19:44:00,
2013-09-24 15:00:00,91.6,57.0,29.87,West,270,5.0,12.0,31,0.00,,,0.01,weatherlink.com 1.10,2013-09-24 20:00:00,
2013-09-24 15:15:00,91.6,57.0,29.87,NW,319,5.0,15.0,31,0.00,,,0.01,weatherlink.com 1.10,2013-09-24 20:15:00,
2013-09-24 15:30:00,91.7,56.0,29.86,North,360,4.0,10.0,30,0.00,,,0.01,weatherlink.com 1.10,2013-09-24 20:30:00,
2013-09-24 15:45:00,92.0,55.0,29.86,NNE,25,3.0,13.0,29,0.00,,,0.01,weatherlink.com 1.10,2013-09-24 20:45:00,
2013-09-24 16:00:00,92.2,55.0,29.85,NNW,333,4.0,10.0,28,0.00,,,0.01,weatherlink.com 1.10,2013-09-24 21:00:00,
2013-09-24 16:15:00,92.4,54.0,29.85,NNW,346,9.0,11.0,27,0.00,,,0.01,weatherlink.com 1.10,2013-09-24 21:15:00,
2013-09-24 16:30:00,92.9,53.0,29.85,NNE,16,4.0,8.0,26,0.00,,,0.01,weatherlink.com 1.10,2013-09-24 21:30:00,
2013-09-24 16:45:00,92.9,52.0,29.84,NNW,342,4.0,10.0,25,0.00,,,0.01,weatherlink.com 1.10,2013-09-24 21:45:00,
2013-09-24 17:00:00,92.7,53.0,29.84,NNW,345,7.0,12.0,26,0.00,,,0.01,weatherlink.com 1.10,2013-09-24 22:00:00,
2013-09-24 17:15:00,92.8,53.0,29.84,North,357,8.0,8.0,26,0.00,,,0.01,weatherlink.com 1.10,2013-09-24 22:15:00,
2013-09-24 17:30:00,92.9,52.0,29.84,North,8,4.0,11.0,25,0.00,,,0.01,weatherlink.com 1.10,2013-09-24 22:30:00,
2013-09-24 17:45:00,92.0,52.0,29.84,NNW,333,8.0,10.0,26,0.00,,,0.01,weatherlink.com 1.10,2013-09-24 22:45:00,
2013-09-24 18:00:00,92.1,52.0,29.84,NE,34,5.0,9.0,25,0.00,,,0.01,weatherlink.com 1.10,2013-09-24 23:00:00,
2013-09-24 18:15:00,91.8,51.0,29.84,NW,321,4.0,8.0,25,0.00,,,0.01,weatherlink.com 1.10,2013-09-24 23:15:00,
2013-09-24 18:30:00,91.4,51.0,29.84,North,9,3.0,7.0,25,0.00,,,0.01,weatherlink.com 1.10,2013-09-24 23:30:00,
2013-09-24 18:45:00,91.1,51.0,29.84,North,349,1.0,10.0,25,0.00,,,0.01,weatherlink.com 1.10,2013-09-24 23:45:00,
2013-09-24 19:00:00,90.4,50.0,29.84,North,359,3.0,7.0,25,0.00,,,0.01,weatherlink.com 1.10,2013-09-25 00:00:00,
2013-09-24 19:15:00,89.2,49.0,29.84,North,8,5.0,8.0,25,0.00,,,0.01,weatherlink.com 1.10,2013-09-25 00:15:00,
2013-09-24 19:30:00,87.9,49.0,29.84,NNW,333,1.0,4.0,26,0.00,,,0.01,weatherlink.com 1.10,2013-09-25 00:30:00,
2013-09-24 19:45:00,86.5,49.0,29.84,NNW,341,2.0,3.0,27,0.00,,,0.01,weatherlink.com 1.10,2013-09-25 00:45:00,
2013-09-24 20:00:00,85.8,50.0,29.84,NNW,333,1.0,3.0,29,0.00,,,0.01,weatherlink.com 1.10,2013-09-25 01:00:00,
2013-09-24 20:15:00,85.4,51.0,29.85,NNW,336,3.0,4.0,30,0.00,,,0.01,weatherlink.com 1.10,2013-09-25 01:15:00,
2013-09-24 20:30:00,84.0,50.0,29.85,NNW,328,1.0,1.0,31,0.00,,,0.01,weatherlink.com 1.10,2013-09-25 01:30:00,
2013-09-24 20:45:00,83.5,50.0,29.85,NNW,333,2.0,3.0,31,0.00,,,0.01,weatherlink.com 1.10,2013-09-25 01:45:00,
2013-09-24 21:00:00,83.1,50.0,29.86,NW,323,1.0,3.0,32,0.00,,,0.01,weatherlink.com 1.10,2013-09-25 02:00:00,
2013-09-24 21:15:00,82.6,51.0,29.86,NNW,330,0.0,3.0,33,0.00,,,0.01,weatherlink.com 1.10,2013-09-25 02:15:00,
2013-09-24 21:30:00,81.4,50.0,29.87,NW,326,0.0,2.0,34,0.00,,,0.01,weatherlink.com 1.10,2013-09-25 02:30:00,
2013-09-24 21:45:00,80.5,50.0,29.87,NNW,348,0.0,1.0,35,0.00,,,0.01,weatherlink.com 1.10,2013-09-25 02:45:00,
2013-09-24 22:00:00,81.0,50.0,29.87,NNW,333,1.0,2.0,34,0.00,,,0.01,weatherlink.com 1.10,2013-09-25 03:00:00,
2013-09-24 22:15:00,80.9,50.0,29.87,NW,320,2.0,2.0,34,0.00,,,0.01,weatherlink.com 1.10,2013-09-25 03:15:00,
2013-09-24 22:30:00,79.8,50.0,29.87,WNW,297,0.0,2.0,35,0.00,,,0.01,weatherlink.com 1.10,2013-09-25 03:30:00,
2013-09-24 22:45:00,79.4,49.0,29.87,WNW,299,1.0,1.0,35,0.00,,,0.01,weatherlink.com 1.10,2013-09-25 03:45:00,
2013-09-24 23:00:00,79.3,49.0,29.87,NW,326,2.0,2.0,35,0.00,,,0.01,weatherlink.com 1.10,2013-09-25 04:00:00,
2013-09-24 23:15:00,78.7,50.0,29.87,NW,321,0.0,2.0,36,0.00,,,0.01,weatherlink.com 1.10,2013-09-25 04:15:00,
2013-09-24 23:30:00,78.7,50.0,29.87,NW,320,0.0,2.0,36,0.00,,,0.01,weatherlink.com 1.10,2013-09-25 04:30:00,
2013-09-24 23:45:00,78.4,50.0,29.87,NW,320,0.0,1.0,37,0.00,,,0.01,weatherlink.com 1.10,2013-09-25 04:45:00,